sensor_id;sensor_type;location;lat;lon;timestamp;temperature;humidity
76040;SHT30;64736;50.462;4.850;2024-01-06T00:01:30;6.02;98.58
76040;SHT30;64736;50.462;4.850;2024-01-06T00:03:56;6.00;98.59
76040;SHT30;64736;50.462;4.850;2024-01-06T00:06:22;6.00;98.57
76040;SHT30;64736;50.462;4.850;2024-01-06T00:08:47;5.98;98.57
76040;SHT30;64736;50.462;4.850;2024-01-06T00:11:20;5.99;98.60
76040;SHT30;64736;50.462;4.850;2024-01-06T00:13:47;5.99;98.60
76040;SHT30;64736;50.462;4.850;2024-01-06T00:16:12;5.93;98.64
76040;SHT30;64736;50.462;4.850;2024-01-06T00:18:39;5.88;98.55
76040;SHT30;64736;50.462;4.850;2024-01-06T00:21:05;6.00;98.62
76040;SHT30;64736;50.462;4.850;2024-01-06T00:23:30;5.72;98.35
76040;SHT30;64736;50.462;4.850;2024-01-06T00:25:56;6.06;98.57
76040;SHT30;64736;50.462;4.850;2024-01-06T00:28:22;5.95;98.38
76040;SHT30;64736;50.462;4.850;2024-01-06T00:30:48;6.02;98.53
76040;SHT30;64736;50.462;4.850;2024-01-06T00:33:13;6.00;98.57
76040;SHT30;64736;50.462;4.850;2024-01-06T00:35:39;6.02;98.62
76040;SHT30;64736;50.462;4.850;2024-01-06T00:38:05;5.92;98.60
76040;SHT30;64736;50.462;4.850;2024-01-06T00:40:31;6.03;98.52
76040;SHT30;64736;50.462;4.850;2024-01-06T00:42:58;6.06;98.59
76040;SHT30;64736;50.462;4.850;2024-01-06T00:45:24;6.03;98.63
76040;SHT30;64736;50.462;4.850;2024-01-06T00:47:50;5.76;98.41
76040;SHT30;64736;50.462;4.850;2024-01-06T00:50:16;6.00;98.30
76040;SHT30;64736;50.462;4.850;2024-01-06T00:52:44;6.07;98.45
76040;SHT30;64736;50.462;4.850;2024-01-06T00:55:09;5.68;98.01
76040;SHT30;64736;50.462;4.850;2024-01-06T00:57:35;5.99;98.07
76040;SHT30;64736;50.462;4.850;2024-01-06T01:00:01;6.05;98.28
76040;SHT30;64736;50.462;4.850;2024-01-06T01:02:26;6.03;98.34
76040;SHT30;64736;50.462;4.850;2024-01-06T01:04:52;5.99;98.28
76040;SHT30;64736;50.462;4.850;2024-01-06T01:07:18;6.03;98.25
76040;SHT30;64736;50.462;4.850;2024-01-06T01:09:44;5.85;98.13
76040;SHT30;64736;50.462;4.850;2024-01-06T01:12:09;6.05;98.33
76040;SHT30;64736;50.462;4.850;2024-01-06T01:14:35;6.05;98.34
76040;SHT30;64736;50.462;4.850;2024-01-06T01:17:01;5.83;97.74
76040;SHT30;64736;50.462;4.850;2024-01-06T01:19:27;5.71;97.69
76040;SHT30;64736;50.462;4.850;2024-01-06T01:21:52;5.99;98.15
76040;SHT30;64736;50.462;4.850;2024-01-06T01:24:22;5.80;98.10
76040;SHT30;64736;50.462;4.850;2024-01-06T01:26:48;6.03;98.24
76040;SHT30;64736;50.462;4.850;2024-01-06T01:29:15;6.07;98.28
76040;SHT30;64736;50.462;4.850;2024-01-06T01:31:40;6.03;98.16
76040;SHT30;64736;50.462;4.850;2024-01-06T01:34:06;6.07;98.26
76040;SHT30;64736;50.462;4.850;2024-01-06T01:36:31;6.02;98.24
76040;SHT30;64736;50.462;4.850;2024-01-06T01:38:57;6.06;98.32
76040;SHT30;64736;50.462;4.850;2024-01-06T01:41:24;6.05;98.33
76040;SHT30;64736;50.462;4.850;2024-01-06T01:43:49;6.02;98.22
76040;SHT30;64736;50.462;4.850;2024-01-06T01:46:28;6.06;98.31
76040;SHT30;64736;50.462;4.850;2024-01-06T01:48:54;6.07;98.32
76040;SHT30;64736;50.462;4.850;2024-01-06T01:51:21;5.95;98.24
76040;SHT30;64736;50.462;4.850;2024-01-06T01:53:47;6.00;98.32
76040;SHT30;64736;50.462;4.850;2024-01-06T01:56:13;6.03;98.31
76040;SHT30;64736;50.462;4.850;2024-01-06T01:58:40;5.76;98.15
76040;SHT30;64736;50.462;4.850;2024-01-06T02:01:07;6.00;98.29
76040;SHT30;64736;50.462;4.850;2024-01-06T02:03:34;6.05;98.39
76040;SHT30;64736;50.462;4.850;2024-01-06T02:06:00;6.06;98.43
76040;SHT30;64736;50.462;4.850;2024-01-06T02:08:26;6.02;98.42
76040;SHT30;64736;50.462;4.850;2024-01-06T02:10:54;6.00;98.43
76040;SHT30;64736;50.462;4.850;2024-01-06T02:13:22;5.96;98.39
76040;SHT30;64736;50.462;4.850;2024-01-06T02:15:47;5.98;98.40
76040;SHT30;64736;50.462;4.850;2024-01-06T02:18:13;6.03;98.43
76040;SHT30;64736;50.462;4.850;2024-01-06T02:20:41;5.98;98.49
76040;SHT30;64736;50.462;4.850;2024-01-06T02:23:08;6.00;98.47
76040;SHT30;64736;50.462;4.850;2024-01-06T02:25:34;5.98;98.45
76040;SHT30;64736;50.462;4.850;2024-01-06T02:28:01;6.00;98.47
76040;SHT30;64736;50.462;4.850;2024-01-06T02:30:26;6.00;98.47
76040;SHT30;64736;50.462;4.850;2024-01-06T02:32:52;5.99;98.52
76040;SHT30;64736;50.462;4.850;2024-01-06T02:35:18;5.95;98.45
76040;SHT30;64736;50.462;4.850;2024-01-06T02:37:44;6.00;98.50
76040;SHT30;64736;50.462;4.850;2024-01-06T02:40:10;5.98;98.46
76040;SHT30;64736;50.462;4.850;2024-01-06T02:42:36;6.03;98.50
76040;SHT30;64736;50.462;4.850;2024-01-06T02:45:02;5.99;98.51
76040;SHT30;64736;50.462;4.850;2024-01-06T02:47:28;6.02;98.52
76040;SHT30;64736;50.462;4.850;2024-01-06T02:49:54;6.00;98.50
76040;SHT30;64736;50.462;4.850;2024-01-06T02:52:20;5.98;98.50
76040;SHT30;64736;50.462;4.850;2024-01-06T02:54:45;5.96;98.45
76040;SHT30;64736;50.462;4.850;2024-01-06T02:57:11;5.92;98.47
76040;SHT30;64736;50.462;4.850;2024-01-06T02:59:38;5.96;98.50
76040;SHT30;64736;50.462;4.850;2024-01-06T03:02:04;5.93;98.56
76040;SHT30;64736;50.462;4.850;2024-01-06T03:04:30;5.92;98.56
76040;SHT30;64736;50.462;4.850;2024-01-06T03:06:56;5.86;98.55
76040;SHT30;64736;50.462;4.850;2024-01-06T03:09:21;5.95;98.61
76040;SHT30;64736;50.462;4.850;2024-01-06T03:11:47;5.89;98.53
76040;SHT30;64736;50.462;4.850;2024-01-06T03:14:13;5.90;98.56
76040;SHT30;64736;50.462;4.850;2024-01-06T03:16:39;5.88;98.59
76040;SHT30;64736;50.462;4.850;2024-01-06T03:19:04;5.93;98.60
76040;SHT30;64736;50.462;4.850;2024-01-06T03:21:30;5.61;97.97
76040;SHT30;64736;50.462;4.850;2024-01-06T03:23:56;5.69;98.09
76040;SHT30;64736;50.462;4.850;2024-01-06T03:26:21;5.80;98.19
76040;SHT30;64736;50.462;4.850;2024-01-06T03:28:50;5.89;98.42
76040;SHT30;64736;50.462;4.850;2024-01-06T03:31:16;5.86;98.48
76040;SHT30;64736;50.462;4.850;2024-01-06T03:33:45;5.89;98.51
76040;SHT30;64736;50.462;4.850;2024-01-06T03:36:12;5.89;98.51
76040;SHT30;64736;50.462;4.850;2024-01-06T03:38:38;5.79;98.50
76040;SHT30;64736;50.462;4.850;2024-01-06T03:41:04;5.86;98.58
76040;SHT30;64736;50.462;4.850;2024-01-06T03:43:29;5.88;98.54
76040;SHT30;64736;50.462;4.850;2024-01-06T03:45:55;5.80;98.46
76040;SHT30;64736;50.462;4.850;2024-01-06T03:48:23;5.72;98.45
76040;SHT30;64736;50.462;4.850;2024-01-06T03:50:49;5.90;98.56
76040;SHT30;64736;50.462;4.850;2024-01-06T03:53:14;5.89;98.52
76040;SHT30;64736;50.462;4.850;2024-01-06T03:55:40;5.79;98.52
76040;SHT30;64736;50.462;4.850;2024-01-06T03:58:06;5.86;98.53
76040;SHT30;64736;50.462;4.850;2024-01-06T04:00:31;5.80;98.44
76040;SHT30;64736;50.462;4.850;2024-01-06T04:02:57;5.90;98.54
76040;SHT30;64736;50.462;4.850;2024-01-06T04:05:23;5.86;98.57
76040;SHT30;64736;50.462;4.850;2024-01-06T04:07:48;5.86;98.53
76040;SHT30;64736;50.462;4.850;2024-01-06T04:10:14;5.86;98.57
76040;SHT30;64736;50.462;4.850;2024-01-06T04:12:40;5.90;98.62
76040;SHT30;64736;50.462;4.850;2024-01-06T04:15:06;5.92;98.63
76040;SHT30;64736;50.462;4.850;2024-01-06T04:17:32;5.86;98.59
76040;SHT30;64736;50.462;4.850;2024-01-06T04:19:58;5.88;98.61
76040;SHT30;64736;50.462;4.850;2024-01-06T04:22:24;5.82;98.47
76040;SHT30;64736;50.462;4.850;2024-01-06T04:24:50;5.82;98.53
76040;SHT30;64736;50.462;4.850;2024-01-06T04:27:15;5.93;98.61
76040;SHT30;64736;50.462;4.850;2024-01-06T04:29:41;5.93;98.57
76040;SHT30;64736;50.462;4.850;2024-01-06T04:32:07;5.88;98.47
76040;SHT30;64736;50.462;4.850;2024-01-06T04:34:33;5.92;98.49
76040;SHT30;64736;50.462;4.850;2024-01-06T04:36:59;5.95;98.58
76040;SHT30;64736;50.462;4.850;2024-01-06T04:39:24;5.93;98.62
76040;SHT30;64736;50.462;4.850;2024-01-06T04:41:50;5.96;98.59
76040;SHT30;64736;50.462;4.850;2024-01-06T04:44:20;5.95;98.60
76040;SHT30;64736;50.462;4.850;2024-01-06T04:46:46;5.93;98.60
76040;SHT30;64736;50.462;4.850;2024-01-06T04:49:12;5.90;98.53
76040;SHT30;64736;50.462;4.850;2024-01-06T04:51:38;5.90;98.57
76040;SHT30;64736;50.462;4.850;2024-01-06T04:54:03;5.93;98.59
76040;SHT30;64736;50.462;4.850;2024-01-06T04:56:29;5.88;98.53
76040;SHT30;64736;50.462;4.850;2024-01-06T04:58:55;5.89;98.58
76040;SHT30;64736;50.462;4.850;2024-01-06T05:01:21;5.88;98.63
76040;SHT30;64736;50.462;4.850;2024-01-06T05:03:47;5.82;98.60
76040;SHT30;64736;50.462;4.850;2024-01-06T05:06:13;5.89;98.65
76040;SHT30;64736;50.462;4.850;2024-01-06T05:08:38;5.90;98.64
76040;SHT30;64736;50.462;4.850;2024-01-06T05:11:11;5.93;98.62
76040;SHT30;64736;50.462;4.850;2024-01-06T05:13:37;5.71;98.35
76040;SHT30;64736;50.462;4.850;2024-01-06T05:16:03;5.98;98.61
76040;SHT30;64736;50.462;4.850;2024-01-06T05:18:29;5.99;98.68
76040;SHT30;64736;50.462;4.850;2024-01-06T05:20:55;5.95;98.65
76040;SHT30;64736;50.462;4.850;2024-01-06T05:23:21;5.93;98.70
76040;SHT30;64736;50.462;4.850;2024-01-06T05:25:47;5.96;98.71
76040;SHT30;64736;50.462;4.850;2024-01-06T05:28:13;5.99;98.73
76040;SHT30;64736;50.462;4.850;2024-01-06T05:30:38;5.68;98.63
76040;SHT30;64736;50.462;4.850;2024-01-06T05:33:04;5.66;98.09
76040;SHT30;64736;50.462;4.850;2024-01-06T05:35:30;5.82;98.40
76040;SHT30;64736;50.462;4.850;2024-01-06T05:37:56;5.79;98.42
76040;SHT30;64736;50.462;4.850;2024-01-06T05:40:21;5.63;98.07
76040;SHT30;64736;50.462;4.850;2024-01-06T05:42:47;5.69;98.18
76040;SHT30;64736;50.462;4.850;2024-01-06T05:45:13;5.75;98.15
76040;SHT30;64736;50.462;4.850;2024-01-06T05:47:38;5.80;98.27
76040;SHT30;64736;50.462;4.850;2024-01-06T05:50:05;5.73;98.08
76040;SHT30;64736;50.462;4.850;2024-01-06T05:52:31;5.69;97.89
76040;SHT30;64736;50.462;4.850;2024-01-06T05:54:57;5.69;97.75
76040;SHT30;64736;50.462;4.850;2024-01-06T05:57:23;5.72;97.53
76040;SHT30;64736;50.462;4.850;2024-01-06T05:59:49;5.78;97.60
76040;SHT30;64736;50.462;4.850;2024-01-06T06:02:15;5.72;97.50
76040;SHT30;64736;50.462;4.850;2024-01-06T06:04:40;5.68;97.37
76040;SHT30;64736;50.462;4.850;2024-01-06T06:07:06;5.65;97.31
76040;SHT30;64736;50.462;4.850;2024-01-06T06:09:32;5.61;97.03
76040;SHT30;64736;50.462;4.850;2024-01-06T06:12:00;5.62;96.95
76040;SHT30;64736;50.462;4.850;2024-01-06T06:14:26;5.65;97.13
76040;SHT30;64736;50.462;4.850;2024-01-06T06:16:53;5.61;96.76
76040;SHT30;64736;50.462;4.850;2024-01-06T06:19:20;5.63;96.75
76040;SHT30;64736;50.462;4.850;2024-01-06T06:21:46;5.65;96.86
76040;SHT30;64736;50.462;4.850;2024-01-06T06:24:11;5.68;97.05
76040;SHT30;64736;50.462;4.850;2024-01-06T06:26:37;5.65;97.15
76040;SHT30;64736;50.462;4.850;2024-01-06T06:29:03;5.56;96.76
76040;SHT30;64736;50.462;4.850;2024-01-06T06:31:28;5.59;96.90
76040;SHT30;64736;50.462;4.850;2024-01-06T06:33:54;5.56;96.91
76040;SHT30;64736;50.462;4.850;2024-01-06T06:36:20;5.61;97.11
76040;SHT30;64736;50.462;4.850;2024-01-06T06:38:45;5.61;97.05
76040;SHT30;64736;50.462;4.850;2024-01-06T06:41:11;5.56;96.70
76040;SHT30;64736;50.462;4.850;2024-01-06T06:43:37;5.52;96.48
76040;SHT30;64736;50.462;4.850;2024-01-06T06:46:03;5.59;96.64
76040;SHT30;64736;50.462;4.850;2024-01-06T06:48:29;5.51;96.16
76040;SHT30;64736;50.462;4.850;2024-01-06T06:50:55;5.58;96.53
76040;SHT30;64736;50.462;4.850;2024-01-06T06:53:21;5.55;96.03
76040;SHT30;64736;50.462;4.850;2024-01-06T06:55:46;5.47;96.06
76040;SHT30;64736;50.462;4.850;2024-01-06T06:58:12;5.44;95.85
76040;SHT30;64736;50.462;4.850;2024-01-06T07:00:38;5.54;96.17
76040;SHT30;64736;50.462;4.850;2024-01-06T07:03:04;5.40;96.00
76040;SHT30;64736;50.462;4.850;2024-01-06T07:05:30;5.42;96.25
76040;SHT30;64736;50.462;4.850;2024-01-06T07:07:56;5.30;96.10
76040;SHT30;64736;50.462;4.850;2024-01-06T07:10:22;5.32;96.49
76040;SHT30;64736;50.462;4.850;2024-01-06T07:12:47;5.19;95.98
76040;SHT30;64736;50.462;4.850;2024-01-06T07:15:13;5.24;96.54
76040;SHT30;64736;50.462;4.850;2024-01-06T07:17:39;5.21;96.58
76040;SHT30;64736;50.462;4.850;2024-01-06T07:20:08;5.14;96.26
76040;SHT30;64736;50.462;4.850;2024-01-06T07:22:35;5.16;96.57
76040;SHT30;64736;50.462;4.850;2024-01-06T07:25:01;5.26;96.73
76040;SHT30;64736;50.462;4.850;2024-01-06T07:27:27;5.23;96.54
76040;SHT30;64736;50.462;4.850;2024-01-06T07:29:52;5.11;96.13
76040;SHT30;64736;50.462;4.850;2024-01-06T07:32:18;5.17;95.96
76040;SHT30;64736;50.462;4.850;2024-01-06T07:34:44;5.21;96.15
76040;SHT30;64736;50.462;4.850;2024-01-06T07:37:10;5.24;96.02
76040;SHT30;64736;50.462;4.850;2024-01-06T07:39:35;5.24;96.00
76040;SHT30;64736;50.462;4.850;2024-01-06T07:42:01;5.30;96.15
76040;SHT30;64736;50.462;4.850;2024-01-06T07:44:28;5.31;96.20
76040;SHT30;64736;50.462;4.850;2024-01-06T07:46:53;5.31;95.83
76040;SHT30;64736;50.462;4.850;2024-01-06T07:49:19;5.27;95.80
76040;SHT30;64736;50.462;4.850;2024-01-06T07:51:45;5.31;95.69
76040;SHT30;64736;50.462;4.850;2024-01-06T07:54:11;5.32;95.88
76040;SHT30;64736;50.462;4.850;2024-01-06T07:56:38;5.31;95.91
76040;SHT30;64736;50.462;4.850;2024-01-06T07:59:04;5.26;95.68
76040;SHT30;64736;50.462;4.850;2024-01-06T08:01:30;5.11;94.31
76040;SHT30;64736;50.462;4.850;2024-01-06T08:03:57;5.04;94.14
76040;SHT30;64736;50.462;4.850;2024-01-06T08:06:23;5.03;94.39
76040;SHT30;64736;50.462;4.850;2024-01-06T08:08:49;5.01;94.41
76040;SHT30;64736;50.462;4.850;2024-01-06T08:11:14;5.07;94.67
76040;SHT30;64736;50.462;4.850;2024-01-06T08:13:40;5.04;94.02
76040;SHT30;64736;50.462;4.850;2024-01-06T08:16:06;5.03;94.35
76040;SHT30;64736;50.462;4.850;2024-01-06T08:18:32;5.04;94.13
76040;SHT30;64736;50.462;4.850;2024-01-06T08:20:58;5.01;93.95
76040;SHT30;64736;50.462;4.850;2024-01-06T08:23:23;5.13;94.67
76040;SHT30;64736;50.462;4.850;2024-01-06T08:25:49;5.03;93.62
76040;SHT30;64736;50.462;4.850;2024-01-06T08:28:15;5.06;92.90
76040;SHT30;64736;50.462;4.850;2024-01-06T08:30:41;5.03;92.93
76040;SHT30;64736;50.462;4.850;2024-01-06T08:33:08;5.16;93.55
76040;SHT30;64736;50.462;4.850;2024-01-06T08:35:33;5.19;93.93
76040;SHT30;64736;50.462;4.850;2024-01-06T08:37:59;5.21;93.53
76040;SHT30;64736;50.462;4.850;2024-01-06T08:40:25;5.17;93.40
76040;SHT30;64736;50.462;4.850;2024-01-06T08:42:51;5.06;92.74
76040;SHT30;64736;50.462;4.850;2024-01-06T08:45:16;5.04;92.66
76040;SHT30;64736;50.462;4.850;2024-01-06T08:47:42;4.99;92.62
76040;SHT30;64736;50.462;4.850;2024-01-06T08:50:08;4.96;92.58
76040;SHT30;64736;50.462;4.850;2024-01-06T08:52:33;4.96;92.67
76040;SHT30;64736;50.462;4.850;2024-01-06T08:54:59;4.96;92.36
76040;SHT30;64736;50.462;4.850;2024-01-06T08:57:25;5.11;93.03
76040;SHT30;64736;50.462;4.850;2024-01-06T08:59:50;5.03;92.73
76040;SHT30;64736;50.462;4.850;2024-01-06T09:02:16;4.96;92.48
76040;SHT30;64736;50.462;4.850;2024-01-06T09:04:41;5.01;92.86
76040;SHT30;64736;50.462;4.850;2024-01-06T09:07:07;4.94;92.46
76040;SHT30;64736;50.462;4.850;2024-01-06T09:09:33;4.94;92.80
76040;SHT30;64736;50.462;4.850;2024-01-06T09:11:59;4.99;92.67
76040;SHT30;64736;50.462;4.850;2024-01-06T09:14:26;4.89;92.62
76040;SHT30;64736;50.462;4.850;2024-01-06T09:16:52;4.86;92.06
76040;SHT30;64736;50.462;4.850;2024-01-06T09:19:18;4.92;92.85
76040;SHT30;64736;50.462;4.850;2024-01-06T09:21:43;4.80;93.03
76040;SHT30;64736;50.462;4.850;2024-01-06T09:24:09;4.83;93.12
76040;SHT30;64736;50.462;4.850;2024-01-06T09:26:35;4.84;93.11
76040;SHT30;64736;50.462;4.850;2024-01-06T09:29:03;4.86;93.16
76040;SHT30;64736;50.462;4.850;2024-01-06T09:31:29;4.86;93.38
76040;SHT30;64736;50.462;4.850;2024-01-06T09:33:55;4.80;93.17
76040;SHT30;64736;50.462;4.850;2024-01-06T09:36:21;4.84;93.48
76040;SHT30;64736;50.462;4.850;2024-01-06T09:38:46;4.77;93.75
76040;SHT30;64736;50.462;4.850;2024-01-06T09:41:12;4.77;94.12
76040;SHT30;64736;50.462;4.850;2024-01-06T09:43:38;4.68;93.80
76040;SHT30;64736;50.462;4.850;2024-01-06T09:46:17;4.68;94.13
76040;SHT30;64736;50.462;4.850;2024-01-06T09:48:43;4.73;94.52
76040;SHT30;64736;50.462;4.850;2024-01-06T09:51:12;4.79;94.17
76040;SHT30;64736;50.462;4.850;2024-01-06T09:53:43;4.69;93.11
76040;SHT30;64736;50.462;4.850;2024-01-06T09:56:14;4.75;93.22
76040;SHT30;64736;50.462;4.850;2024-01-06T09:58:41;4.86;93.51
76040;SHT30;64736;50.462;4.850;2024-01-06T10:01:07;4.84;93.17
76040;SHT30;64736;50.462;4.850;2024-01-06T10:03:35;5.07;93.68
76040;SHT30;64736;50.462;4.850;2024-01-06T10:06:01;5.09;93.54
76040;SHT30;64736;50.462;4.850;2024-01-06T10:08:32;5.00;93.36
76040;SHT30;64736;50.462;4.850;2024-01-06T10:11:00;4.94;92.78
76040;SHT30;64736;50.462;4.850;2024-01-06T10:13:26;5.16;93.15
76040;SHT30;64736;50.462;4.850;2024-01-06T10:15:54;5.09;92.82
76040;SHT30;64736;50.462;4.850;2024-01-06T10:18:21;5.10;92.96
76040;SHT30;64736;50.462;4.850;2024-01-06T10:20:47;4.93;91.78
76040;SHT30;64736;50.462;4.850;2024-01-06T10:23:13;5.10;92.18
76040;SHT30;64736;50.462;4.850;2024-01-06T10:25:39;5.01;91.81
76040;SHT30;64736;50.462;4.850;2024-01-06T10:28:12;4.97;91.70
76040;SHT30;64736;50.462;4.850;2024-01-06T10:30:39;5.04;92.43
76040;SHT30;64736;50.462;4.850;2024-01-06T10:33:11;5.04;92.36
76040;SHT30;64736;50.462;4.850;2024-01-06T10:35:37;4.96;92.25
76040;SHT30;64736;50.462;4.850;2024-01-06T10:38:03;4.97;93.27
76040;SHT30;64736;50.462;4.850;2024-01-06T10:40:29;5.00;92.94
76040;SHT30;64736;50.462;4.850;2024-01-06T10:42:55;4.96;92.96
76040;SHT30;64736;50.462;4.850;2024-01-06T10:45:23;4.99;92.38
76040;SHT30;64736;50.462;4.850;2024-01-06T10:47:49;4.97;92.66
76040;SHT30;64736;50.462;4.850;2024-01-06T10:50:17;5.00;92.02
76040;SHT30;64736;50.462;4.850;2024-01-06T10:52:43;5.03;92.43
76040;SHT30;64736;50.462;4.850;2024-01-06T10:55:09;5.17;92.39
76040;SHT30;64736;50.462;4.850;2024-01-06T10:57:37;5.14;91.88
76040;SHT30;64736;50.462;4.850;2024-01-06T11:00:04;5.20;92.44
76040;SHT30;64736;50.462;4.850;2024-01-06T11:02:31;5.35;92.50
76040;SHT30;64736;50.462;4.850;2024-01-06T11:04:57;5.19;92.32
76040;SHT30;64736;50.462;4.850;2024-01-06T11:07:24;5.04;92.61
76040;SHT30;64736;50.462;4.850;2024-01-06T11:09:55;5.09;91.99
76040;SHT30;64736;50.462;4.850;2024-01-06T11:12:22;5.09;92.94
76040;SHT30;64736;50.462;4.850;2024-01-06T11:14:48;4.96;91.69
76040;SHT30;64736;50.462;4.850;2024-01-06T11:17:55;4.89;91.36
76040;SHT30;64736;50.462;4.850;2024-01-06T11:20:24;4.87;91.04
76040;SHT30;64736;50.462;4.850;2024-01-06T11:22:52;5.17;92.39
76040;SHT30;64736;50.462;4.850;2024-01-06T11:25:22;5.23;91.90
76040;SHT30;64736;50.462;4.850;2024-01-06T11:27:49;5.11;91.04
76040;SHT30;64736;50.462;4.850;2024-01-06T11:30:23;5.24;91.64
76040;SHT30;64736;50.462;4.850;2024-01-06T11:32:50;5.10;91.47
76040;SHT30;64736;50.462;4.850;2024-01-06T11:35:18;5.01;91.54
76040;SHT30;64736;50.462;4.850;2024-01-06T11:45:24;5.11;92.51
76040;SHT30;64736;50.462;4.850;2024-01-06T11:47:54;5.10;92.32
76040;SHT30;64736;50.462;4.850;2024-01-06T11:50:21;5.06;92.62
76040;SHT30;64736;50.462;4.850;2024-01-06T11:52:46;4.92;92.74
76040;SHT30;64736;50.462;4.850;2024-01-06T11:55:12;4.80;93.02
76040;SHT30;64736;50.462;4.850;2024-01-06T11:57:38;4.69;92.65
76040;SHT30;64736;50.462;4.850;2024-01-06T12:00:05;4.65;93.42
76040;SHT30;64736;50.462;4.850;2024-01-06T12:02:30;4.51;93.70
76040;SHT30;64736;50.462;4.850;2024-01-06T12:04:56;4.51;94.01
76040;SHT30;64736;50.462;4.850;2024-01-06T12:07:22;4.44;93.50
76040;SHT30;64736;50.462;4.850;2024-01-06T12:09:48;4.52;94.13
76040;SHT30;64736;50.462;4.850;2024-01-06T12:12:18;4.42;94.45
76040;SHT30;64736;50.462;4.850;2024-01-06T12:14:44;4.41;94.52
76040;SHT30;64736;50.462;4.850;2024-01-06T12:17:11;4.30;94.97
76040;SHT30;64736;50.462;4.850;2024-01-06T12:19:39;4.35;95.05
76040;SHT30;64736;50.462;4.850;2024-01-06T12:22:09;4.10;94.73
76040;SHT30;64736;50.462;4.850;2024-01-06T12:24:35;3.98;94.68
76040;SHT30;64736;50.462;4.850;2024-01-06T12:27:01;4.13;95.08
76040;SHT30;64736;50.462;4.850;2024-01-06T12:29:27;4.11;94.73
76040;SHT30;64736;50.462;4.850;2024-01-06T12:31:59;4.17;94.85
76040;SHT30;64736;50.462;4.850;2024-01-06T12:34:24;4.08;95.50
76040;SHT30;64736;50.462;4.850;2024-01-06T12:36:53;4.10;95.78
76040;SHT30;64736;50.462;4.850;2024-01-06T12:39:20;4.04;95.90
76040;SHT30;64736;50.462;4.850;2024-01-06T12:41:46;4.10;95.32
76040;SHT30;64736;50.462;4.850;2024-01-06T12:44:12;4.06;95.55
76040;SHT30;64736;50.462;4.850;2024-01-06T12:46:38;4.08;95.21
76040;SHT30;64736;50.462;4.850;2024-01-06T12:49:03;4.10;95.26
76040;SHT30;64736;50.462;4.850;2024-01-06T12:51:29;4.00;95.13
76040;SHT30;64736;50.462;4.850;2024-01-06T12:53:55;4.01;95.22
76040;SHT30;64736;50.462;4.850;2024-01-06T12:56:21;4.08;95.19
76040;SHT30;64736;50.462;4.850;2024-01-06T12:58:47;4.01;94.85
76040;SHT30;64736;50.462;4.850;2024-01-06T13:01:13;3.90;95.36
76040;SHT30;64736;50.462;4.850;2024-01-06T13:03:38;3.91;94.43
76040;SHT30;64736;50.462;4.850;2024-01-06T13:06:04;3.87;94.67
76040;SHT30;64736;50.462;4.850;2024-01-06T13:08:30;4.03;94.68
76040;SHT30;64736;50.462;4.850;2024-01-06T13:10:56;4.01;94.65
76040;SHT30;64736;50.462;4.850;2024-01-06T13:13:21;3.94;94.61
76040;SHT30;64736;50.462;4.850;2024-01-06T13:15:47;3.91;95.06
76040;SHT30;64736;50.462;4.850;2024-01-06T13:18:13;3.86;94.83
76040;SHT30;64736;50.462;4.850;2024-01-06T13:20:39;3.89;95.01
76040;SHT30;64736;50.462;4.850;2024-01-06T13:23:07;3.86;95.11
76040;SHT30;64736;50.462;4.850;2024-01-06T13:25:34;3.77;97.75
76040;SHT30;64736;50.462;4.850;2024-01-06T13:28:00;3.89;98.12
76040;SHT30;64736;50.462;4.850;2024-01-06T13:30:26;3.87;97.86
76040;SHT30;64736;50.462;4.850;2024-01-06T13:32:53;3.79;97.64
76040;SHT30;64736;50.462;4.850;2024-01-06T13:35:22;4.04;97.86
76040;SHT30;64736;50.462;4.850;2024-01-06T13:37:53;4.06;97.71
76040;SHT30;64736;50.462;4.850;2024-01-06T13:40:21;3.94;96.02
76040;SHT30;64736;50.462;4.850;2024-01-06T13:42:51;3.98;95.00
76040;SHT30;64736;50.462;4.850;2024-01-06T13:45:18;3.97;94.96
76040;SHT30;64736;50.462;4.850;2024-01-06T13:47:43;4.01;94.69
76040;SHT30;64736;50.462;4.850;2024-01-06T13:50:16;4.08;94.80
76040;SHT30;64736;50.462;4.850;2024-01-06T13:52:43;3.94;93.39
76040;SHT30;64736;50.462;4.850;2024-01-06T13:55:09;4.06;93.62
76040;SHT30;64736;50.462;4.850;2024-01-06T13:57:35;4.06;92.78
76040;SHT30;64736;50.462;4.850;2024-01-06T14:00:02;4.10;93.02
76040;SHT30;64736;50.462;4.850;2024-01-06T14:02:30;4.11;92.74
76040;SHT30;64736;50.462;4.850;2024-01-06T14:04:55;4.14;92.82
76040;SHT30;64736;50.462;4.850;2024-01-06T14:07:21;4.11;93.51
76040;SHT30;64736;50.462;4.850;2024-01-06T14:09:48;4.06;93.29
76040;SHT30;64736;50.462;4.850;2024-01-06T14:12:14;4.00;93.91
76040;SHT30;64736;50.462;4.850;2024-01-06T14:14:40;3.90;93.75
76040;SHT30;64736;50.462;4.850;2024-01-06T14:17:07;3.85;93.30
76040;SHT30;64736;50.462;4.850;2024-01-06T14:19:33;3.86;93.53
76040;SHT30;64736;50.462;4.850;2024-01-06T14:21:58;4.00;93.63
76040;SHT30;64736;50.462;4.850;2024-01-06T14:24:24;3.96;93.61
76040;SHT30;64736;50.462;4.850;2024-01-06T14:26:50;3.90;93.67
76040;SHT30;64736;50.462;4.850;2024-01-06T14:29:16;3.97;94.00
76040;SHT30;64736;50.462;4.850;2024-01-06T14:31:43;3.80;93.80
76040;SHT30;64736;50.462;4.850;2024-01-06T14:34:09;3.83;94.05
76040;SHT30;64736;50.462;4.850;2024-01-06T14:36:35;3.90;94.04
76040;SHT30;64736;50.462;4.850;2024-01-06T14:39:01;3.79;93.99
76040;SHT30;64736;50.462;4.850;2024-01-06T14:41:26;3.94;94.08
76040;SHT30;64736;50.462;4.850;2024-01-06T14:43:52;3.90;93.34
76040;SHT30;64736;50.462;4.850;2024-01-06T14:46:18;3.89;93.61
76040;SHT30;64736;50.462;4.850;2024-01-06T14:48:47;3.86;93.73
76040;SHT30;64736;50.462;4.850;2024-01-06T14:51:12;3.93;93.84
76040;SHT30;64736;50.462;4.850;2024-01-06T14:53:38;4.07;94.23
76040;SHT30;64736;50.462;4.850;2024-01-06T14:56:04;3.91;93.76
76040;SHT30;64736;50.462;4.850;2024-01-06T14:58:30;4.01;94.13
76040;SHT30;64736;50.462;4.850;2024-01-06T15:00:56;3.97;94.31
76040;SHT30;64736;50.462;4.850;2024-01-06T15:03:22;3.87;93.67
76040;SHT30;64736;50.462;4.850;2024-01-06T15:05:49;3.93;94.01
76040;SHT30;64736;50.462;4.850;2024-01-06T15:08:15;3.97;93.97
76040;SHT30;64736;50.462;4.850;2024-01-06T15:10:40;3.90;94.02
76040;SHT30;64736;50.462;4.850;2024-01-06T15:13:06;3.86;93.52
76040;SHT30;64736;50.462;4.850;2024-01-06T15:15:32;3.87;93.69
76040;SHT30;64736;50.462;4.850;2024-01-06T15:17:58;3.83;93.83
76040;SHT30;64736;50.462;4.850;2024-01-06T15:20:23;3.86;93.65
76040;SHT30;64736;50.462;4.850;2024-01-06T15:22:49;3.86;93.78
76040;SHT30;64736;50.462;4.850;2024-01-06T15:25:15;3.73;93.45
76040;SHT30;64736;50.462;4.850;2024-01-06T15:27:40;3.75;93.31
76040;SHT30;64736;50.462;4.850;2024-01-06T15:30:06;3.72;93.06
76040;SHT30;64736;50.462;4.850;2024-01-06T15:32:37;3.76;92.83
76040;SHT30;64736;50.462;4.850;2024-01-06T15:35:04;3.73;92.18
76040;SHT30;64736;50.462;4.850;2024-01-06T15:37:31;3.82;92.64
76040;SHT30;64736;50.462;4.850;2024-01-06T15:39:57;3.67;92.44
76040;SHT30;64736;50.462;4.850;2024-01-06T15:42:22;3.75;92.55
76040;SHT30;64736;50.462;4.850;2024-01-06T15:44:48;3.79;92.93
76040;SHT30;64736;50.462;4.850;2024-01-06T15:47:14;3.70;92.57